Skip Navigation Links Skip Navigation Links

Current Weather

Lansing Muni, Lansing, Ill.

For information only: do not use for flight planning or navigation.
Latest weather
Observation time Saturday, October 19, 2019 4:55 AM CDT
Local time Saturday, October 19, 2019 5:17 AM CDT
Flight conditions Visual Meteorological Conditions
Winds
Wind speed calm
Visibility 10 mi.
Sky condition
Ceiling unlimited
Sky clear
Temperature 42°F
Dewpoint 38°F
Altimeter 29.90 in.Hg
Derived measurements
Relative humidity 85%
Wind chill 42°F
Density altitude -354 ft.
Remarks
Fully automated report.
Automated weather observing station with precipitation discriminator.
METAR KIGQ 190955Z AUTO 00000KT 10SM CLR 06/04 A2990 RMK AO2 T00580035

Settings

Location code

InnerDrive.Weather 4.0.6770.0 Release CLR 4.0.30319.42000
Copyright ©2018 Inner Drive Technology. All rights reserved. Portions Copyright ©1986-2018 David Braverman.

Find weather

Site navigation


Skip Navigation Links

Place info

Page info

PayPal - The safer, easier way to pay online!

Return home.

Copyright ©2019 Inner Drive Technology. Purveyors of fine, hand-crafted computer software. Page printed 2019-10-19T10:17:11 UTC.